sensor_id;sensor_type;location;lat;lon;timestamp;temperature;humidity
8420;DHT22;4247;48.550;8.822;2023-02-23T00:01:24;9.10;99.90
8420;DHT22;4247;48.550;8.822;2023-02-23T00:03:53;9.00;99.90
8420;DHT22;4247;48.550;8.822;2023-02-23T00:06:21;9.00;99.90
8420;DHT22;4247;48.550;8.822;2023-02-23T00:08:49;9.00;99.90
8420;DHT22;4247;48.550;8.822;2023-02-23T00:11:17;9.00;99.90
8420;DHT22;4247;48.550;8.822;2023-02-23T00:13:49;9.00;99.90
8420;DHT22;4247;48.550;8.822;2023-02-23T00:16:21;9.00;99.90
8420;DHT22;4247;48.550;8.822;2023-02-23T00:18:50;9.00;99.90
8420;DHT22;4247;48.550;8.822;2023-02-23T00:21:19;9.00;99.90
8420;DHT22;4247;48.550;8.822;2023-02-23T00:23:48;9.00;99.90
8420;DHT22;4247;48.550;8.822;2023-02-23T00:26:16;9.00;99.90
8420;DHT22;4247;48.550;8.822;2023-02-23T00:28:47;8.90;99.90
8420;DHT22;4247;48.550;8.822;2023-02-23T00:31:15;8.90;99.90
8420;DHT22;4247;48.550;8.822;2023-02-23T00:33:51;8.90;99.90
8420;DHT22;4247;48.550;8.822;2023-02-23T00:36:20;8.90;99.90
8420;DHT22;4247;48.550;8.822;2023-02-23T00:38:52;8.80;99.90
8420;DHT22;4247;48.550;8.822;2023-02-23T00:41:19;8.80;99.90
8420;DHT22;4247;48.550;8.822;2023-02-23T00:43:51;8.90;99.90
8420;DHT22;4247;48.550;8.822;2023-02-23T00:46:21;8.90;99.90
8420;DHT22;4247;48.550;8.822;2023-02-23T00:48:51;8.90;99.90
8420;DHT22;4247;48.550;8.822;2023-02-23T00:51:20;8.90;99.90
8420;DHT22;4247;48.550;8.822;2023-02-23T00:53:53;8.90;99.90
8420;DHT22;4247;48.550;8.822;2023-02-23T00:56:23;8.90;99.90
8420;DHT22;4247;48.550;8.822;2023-02-23T00:58:51;8.90;99.90
8420;DHT22;4247;48.550;8.822;2023-02-23T01:01:18;8.90;99.90
8420;DHT22;4247;48.550;8.822;2023-02-23T01:03:45;8.80;99.90
8420;DHT22;4247;48.550;8.822;2023-02-23T01:06:14;8.80;99.90
8420;DHT22;4247;48.550;8.822;2023-02-23T01:08:43;8.90;99.90
8420;DHT22;4247;48.550;8.822;2023-02-23T01:11:12;8.80;99.90
8420;DHT22;4247;48.550;8.822;2023-02-23T01:13:42;8.80;99.90
8420;DHT22;4247;48.550;8.822;2023-02-23T01:16:15;8.70;99.90
8420;DHT22;4247;48.550;8.822;2023-02-23T01:18:43;8.70;99.90
8420;DHT22;4247;48.550;8.822;2023-02-23T01:21:15;8.70;99.90
8420;DHT22;4247;48.550;8.822;2023-02-23T01:23:42;8.70;99.90
8420;DHT22;4247;48.550;8.822;2023-02-23T01:26:14;8.70;99.90
8420;DHT22;4247;48.550;8.822;2023-02-23T01:28:41;8.70;99.90
8420;DHT22;4247;48.550;8.822;2023-02-23T01:31:08;8.70;99.90
8420;DHT22;4247;48.550;8.822;2023-02-23T01:33:37;8.70;99.90
8420;DHT22;4247;48.550;8.822;2023-02-23T01:36:04;8.70;99.90
8420;DHT22;4247;48.550;8.822;2023-02-23T01:38:31;8.80;99.90
8420;DHT22;4247;48.550;8.822;2023-02-23T01:41:01;8.70;99.90
8420;DHT22;4247;48.550;8.822;2023-02-23T01:43:28;8.70;99.90
8420;DHT22;4247;48.550;8.822;2023-02-23T01:45:56;8.70;99.90
8420;DHT22;4247;48.550;8.822;2023-02-23T01:48:26;8.70;99.90
8420;DHT22;4247;48.550;8.822;2023-02-23T01:50:58;8.70;99.90
8420;DHT22;4247;48.550;8.822;2023-02-23T01:53:28;8.70;99.90
8420;DHT22;4247;48.550;8.822;2023-02-23T01:56:02;8.70;99.90
8420;DHT22;4247;48.550;8.822;2023-02-23T01:58:36;8.80;99.90
8420;DHT22;4247;48.550;8.822;2023-02-23T02:01:05;8.70;99.90
8420;DHT22;4247;48.550;8.822;2023-02-23T02:03:35;8.70;99.90
8420;DHT22;4247;48.550;8.822;2023-02-23T02:06:07;8.80;99.90
8420;DHT22;4247;48.550;8.822;2023-02-23T02:08:38;8.70;99.90
8420;DHT22;4247;48.550;8.822;2023-02-23T02:11:10;8.70;99.90
8420;DHT22;4247;48.550;8.822;2023-02-23T02:13:51;8.70;99.90
8420;DHT22;4247;48.550;8.822;2023-02-23T02:25:41;8.70;99.90
8420;DHT22;4247;48.550;8.822;2023-02-23T02:28:36;8.80;99.90
8420;DHT22;4247;48.550;8.822;2023-02-23T02:34:39;8.70;99.90
8420;DHT22;4247;48.550;8.822;2023-02-23T02:37:33;8.70;99.90
8420;DHT22;4247;48.550;8.822;2023-02-23T02:40:10;8.70;99.90
8420;DHT22;4247;48.550;8.822;2023-02-23T02:42:58;8.70;99.90
8420;DHT22;4247;48.550;8.822;2023-02-23T02:45:44;8.70;99.90
8420;DHT22;4247;48.550;8.822;2023-02-23T02:48:19;8.70;99.90
8420;DHT22;4247;48.550;8.822;2023-02-23T02:50:49;8.70;99.90
8420;DHT22;4247;48.550;8.822;2023-02-23T02:53:25;8.80;99.90
8420;DHT22;4247;48.550;8.822;2023-02-23T02:55:54;8.70;99.90
8420;DHT22;4247;48.550;8.822;2023-02-23T02:58:25;8.80;99.90
8420;DHT22;4247;48.550;8.822;2023-02-23T03:00:55;8.70;99.90
8420;DHT22;4247;48.550;8.822;2023-02-23T03:03:48;8.70;99.90
8420;DHT22;4247;48.550;8.822;2023-02-23T03:06:33;8.70;99.90
8420;DHT22;4247;48.550;8.822;2023-02-23T03:09:27;8.70;99.90
8420;DHT22;4247;48.550;8.822;2023-02-23T03:12:24;8.70;99.90
8420;DHT22;4247;48.550;8.822;2023-02-23T03:15:21;8.70;99.90
8420;DHT22;4247;48.550;8.822;2023-02-23T03:18:17;8.70;99.90
8420;DHT22;4247;48.550;8.822;2023-02-23T03:21:11;8.70;99.90
8420;DHT22;4247;48.550;8.822;2023-02-23T03:24:03;8.70;99.90
8420;DHT22;4247;48.550;8.822;2023-02-23T03:26:57;8.70;99.90
8420;DHT22;4247;48.550;8.822;2023-02-23T03:29:48;8.60;99.90
8420;DHT22;4247;48.550;8.822;2023-02-23T03:32:43;8.60;99.90
8420;DHT22;4247;48.550;8.822;2023-02-23T03:35:34;8.60;99.90
8420;DHT22;4247;48.550;8.822;2023-02-23T03:38:28;8.60;99.90
8420;DHT22;4247;48.550;8.822;2023-02-23T03:41:17;8.60;99.90
8420;DHT22;4247;48.550;8.822;2023-02-23T03:44:08;8.60;99.90
8420;DHT22;4247;48.550;8.822;2023-02-23T03:46:54;8.60;99.90
8420;DHT22;4247;48.550;8.822;2023-02-23T03:49:41;8.60;99.90
8420;DHT22;4247;48.550;8.822;2023-02-23T03:52:30;8.60;99.90
8420;DHT22;4247;48.550;8.822;2023-02-23T03:55:19;8.60;99.90
8420;DHT22;4247;48.550;8.822;2023-02-23T03:58:07;8.60;99.90
8420;DHT22;4247;48.550;8.822;2023-02-23T04:00:54;8.60;99.90
8420;DHT22;4247;48.550;8.822;2023-02-23T04:03:43;8.60;99.90
8420;DHT22;4247;48.550;8.822;2023-02-23T04:06:35;8.60;99.90
8420;DHT22;4247;48.550;8.822;2023-02-23T04:09:20;8.60;99.90
8420;DHT22;4247;48.550;8.822;2023-02-23T04:12:08;8.60;99.90
8420;DHT22;4247;48.550;8.822;2023-02-23T04:14:56;8.60;99.90
8420;DHT22;4247;48.550;8.822;2023-02-23T04:17:28;8.60;99.90
8420;DHT22;4247;48.550;8.822;2023-02-23T04:19:55;8.60;99.90
8420;DHT22;4247;48.550;8.822;2023-02-23T04:22:22;8.60;99.90
8420;DHT22;4247;48.550;8.822;2023-02-23T04:24:49;8.60;99.90
8420;DHT22;4247;48.550;8.822;2023-02-23T04:27:17;8.60;99.90
8420;DHT22;4247;48.550;8.822;2023-02-23T04:29:44;8.60;99.90
8420;DHT22;4247;48.550;8.822;2023-02-23T04:32:12;8.60;99.90
8420;DHT22;4247;48.550;8.822;2023-02-23T04:34:43;8.60;99.90
8420;DHT22;4247;48.550;8.822;2023-02-23T04:37:10;8.60;99.90
8420;DHT22;4247;48.550;8.822;2023-02-23T04:39:40;8.50;99.90
8420;DHT22;4247;48.550;8.822;2023-02-23T04:42:16;8.50;99.90
8420;DHT22;4247;48.550;8.822;2023-02-23T04:44:43;8.60;99.90
8420;DHT22;4247;48.550;8.822;2023-02-23T04:47:10;8.60;99.90
8420;DHT22;4247;48.550;8.822;2023-02-23T04:49:37;8.50;99.90
8420;DHT22;4247;48.550;8.822;2023-02-23T04:52:07;8.50;99.90
8420;DHT22;4247;48.550;8.822;2023-02-23T04:54:36;8.50;99.90
8420;DHT22;4247;48.550;8.822;2023-02-23T04:57:04;8.50;99.90
8420;DHT22;4247;48.550;8.822;2023-02-23T04:59:31;8.50;99.90
8420;DHT22;4247;48.550;8.822;2023-02-23T05:02:01;8.50;99.90
8420;DHT22;4247;48.550;8.822;2023-02-23T05:04:28;8.50;99.90
8420;DHT22;4247;48.550;8.822;2023-02-23T05:06:55;8.50;99.90
8420;DHT22;4247;48.550;8.822;2023-02-23T05:09:23;8.50;99.90
8420;DHT22;4247;48.550;8.822;2023-02-23T05:11:50;8.50;99.90
8420;DHT22;4247;48.550;8.822;2023-02-23T05:14:20;8.50;99.90
8420;DHT22;4247;48.550;8.822;2023-02-23T05:16:48;8.50;99.90
8420;DHT22;4247;48.550;8.822;2023-02-23T05:19:15;8.50;99.90
8420;DHT22;4247;48.550;8.822;2023-02-23T05:21:42;8.50;99.90
8420;DHT22;4247;48.550;8.822;2023-02-23T05:24:09;8.50;99.90
8420;DHT22;4247;48.550;8.822;2023-02-23T05:26:40;8.50;99.90
8420;DHT22;4247;48.550;8.822;2023-02-23T05:29:07;8.50;99.90
8420;DHT22;4247;48.550;8.822;2023-02-23T05:31:33;8.50;99.90
8420;DHT22;4247;48.550;8.822;2023-02-23T05:34:00;8.50;99.90
8420;DHT22;4247;48.550;8.822;2023-02-23T05:36:27;8.50;99.90
8420;DHT22;4247;48.550;8.822;2023-02-23T05:38:54;8.50;99.90
8420;DHT22;4247;48.550;8.822;2023-02-23T05:41:25;8.50;99.90
8420;DHT22;4247;48.550;8.822;2023-02-23T05:43:54;8.50;99.90
8420;DHT22;4247;48.550;8.822;2023-02-23T05:46:23;8.50;99.90
8420;DHT22;4247;48.550;8.822;2023-02-23T05:48:53;8.40;99.90
8420;DHT22;4247;48.550;8.822;2023-02-23T05:51:21;8.40;99.90
8420;DHT22;4247;48.550;8.822;2023-02-23T05:53:47;8.40;99.90
8420;DHT22;4247;48.550;8.822;2023-02-23T05:56:17;8.40;99.90
8420;DHT22;4247;48.550;8.822;2023-02-23T05:58:45;8.30;99.90
8420;DHT22;4247;48.550;8.822;2023-02-23T06:01:14;8.30;99.90
8420;DHT22;4247;48.550;8.822;2023-02-23T06:03:41;8.30;99.90
8420;DHT22;4247;48.550;8.822;2023-02-23T06:06:12;8.30;99.90
8420;DHT22;4247;48.550;8.822;2023-02-23T06:08:39;8.20;99.90
8420;DHT22;4247;48.550;8.822;2023-02-23T06:11:09;8.20;99.90
8420;DHT22;4247;48.550;8.822;2023-02-23T06:13:36;8.20;99.90
8420;DHT22;4247;48.550;8.822;2023-02-23T06:16:06;8.20;99.90
8420;DHT22;4247;48.550;8.822;2023-02-23T06:18:36;8.10;99.90
8420;DHT22;4247;48.550;8.822;2023-02-23T06:21:03;8.20;99.90
8420;DHT22;4247;48.550;8.822;2023-02-23T06:23:31;8.10;99.90
8420;DHT22;4247;48.550;8.822;2023-02-23T06:25:58;8.20;99.90
8420;DHT22;4247;48.550;8.822;2023-02-23T06:28:25;8.10;99.90
8420;DHT22;4247;48.550;8.822;2023-02-23T06:30:53;8.10;99.90
8420;DHT22;4247;48.550;8.822;2023-02-23T06:33:23;8.10;99.90
8420;DHT22;4247;48.550;8.822;2023-02-23T06:35:51;8.10;99.90
8420;DHT22;4247;48.550;8.822;2023-02-23T06:38:21;8.00;99.90
8420;DHT22;4247;48.550;8.822;2023-02-23T06:40:48;8.00;99.90
8420;DHT22;4247;48.550;8.822;2023-02-23T06:43:15;8.00;99.90
8420;DHT22;4247;48.550;8.822;2023-02-23T06:45:42;8.00;99.90
8420;DHT22;4247;48.550;8.822;2023-02-23T06:48:09;8.00;99.90
8420;DHT22;4247;48.550;8.822;2023-02-23T06:50:36;8.00;99.90
8420;DHT22;4247;48.550;8.822;2023-02-23T06:53:04;8.00;99.90
8420;DHT22;4247;48.550;8.822;2023-02-23T06:55:31;8.00;99.90
8420;DHT22;4247;48.550;8.822;2023-02-23T06:57:58;8.00;99.90
8420;DHT22;4247;48.550;8.822;2023-02-23T07:00:27;8.00;99.90
8420;DHT22;4247;48.550;8.822;2023-02-23T07:02:56;8.00;99.90
8420;DHT22;4247;48.550;8.822;2023-02-23T07:05:24;8.00;99.90
8420;DHT22;4247;48.550;8.822;2023-02-23T07:07:51;8.10;99.90
8420;DHT22;4247;48.550;8.822;2023-02-23T07:10:21;8.20;99.90
8420;DHT22;4247;48.550;8.822;2023-02-23T07:12:48;8.20;99.90
8420;DHT22;4247;48.550;8.822;2023-02-23T07:15:16;8.20;99.90
8420;DHT22;4247;48.550;8.822;2023-02-23T07:17:44;8.30;99.90
8420;DHT22;4247;48.550;8.822;2023-02-23T07:20:13;8.30;99.90
8420;DHT22;4247;48.550;8.822;2023-02-23T07:22:40;8.30;99.90
8420;DHT22;4247;48.550;8.822;2023-02-23T07:25:08;8.40;99.90
8420;DHT22;4247;48.550;8.822;2023-02-23T07:27:36;8.50;99.90
8420;DHT22;4247;48.550;8.822;2023-02-23T07:30:04;8.50;99.90
8420;DHT22;4247;48.550;8.822;2023-02-23T07:32:31;8.50;99.90
8420;DHT22;4247;48.550;8.822;2023-02-23T07:35:01;8.60;99.90
8420;DHT22;4247;48.550;8.822;2023-02-23T07:37:28;8.60;99.90
8420;DHT22;4247;48.550;8.822;2023-02-23T07:39:58;8.70;99.90
8420;DHT22;4247;48.550;8.822;2023-02-23T07:42:25;8.70;99.90
8420;DHT22;4247;48.550;8.822;2023-02-23T07:44:53;8.80;99.90
8420;DHT22;4247;48.550;8.822;2023-02-23T07:47:20;8.90;99.90
8420;DHT22;4247;48.550;8.822;2023-02-23T07:49:56;8.90;99.90
8420;DHT22;4247;48.550;8.822;2023-02-23T07:52:25;8.90;99.90
8420;DHT22;4247;48.550;8.822;2023-02-23T07:54:52;9.00;99.90
8420;DHT22;4247;48.550;8.822;2023-02-23T07:57:19;9.00;99.90
8420;DHT22;4247;48.550;8.822;2023-02-23T07:59:48;9.00;99.90
8420;DHT22;4247;48.550;8.822;2023-02-23T08:02:16;9.00;99.90
8420;DHT22;4247;48.550;8.822;2023-02-23T08:04:46;9.00;99.90
8420;DHT22;4247;48.550;8.822;2023-02-23T08:07:24;9.10;99.90
8420;DHT22;4247;48.550;8.822;2023-02-23T08:09:51;9.10;99.90
8420;DHT22;4247;48.550;8.822;2023-02-23T08:12:19;9.20;99.90
8420;DHT22;4247;48.550;8.822;2023-02-23T08:14:45;9.30;99.90
8420;DHT22;4247;48.550;8.822;2023-02-23T08:17:12;9.40;99.90
8420;DHT22;4247;48.550;8.822;2023-02-23T08:19:41;9.40;99.90
8420;DHT22;4247;48.550;8.822;2023-02-23T08:22:09;9.50;99.90
8420;DHT22;4247;48.550;8.822;2023-02-23T08:24:36;9.60;99.90
8420;DHT22;4247;48.550;8.822;2023-02-23T08:27:03;9.60;99.90
8420;DHT22;4247;48.550;8.822;2023-02-23T08:29:30;9.70;99.90
8420;DHT22;4247;48.550;8.822;2023-02-23T08:31:57;9.80;99.90
8420;DHT22;4247;48.550;8.822;2023-02-23T08:34:30;9.90;99.90
8420;DHT22;4247;48.550;8.822;2023-02-23T08:37:01;9.90;99.90
8420;DHT22;4247;48.550;8.822;2023-02-23T08:39:28;10.00;99.90
8420;DHT22;4247;48.550;8.822;2023-02-23T08:41:55;10.10;99.90
8420;DHT22;4247;48.550;8.822;2023-02-23T08:44:22;10.10;99.90
8420;DHT22;4247;48.550;8.822;2023-02-23T08:46:49;10.20;99.90
8420;DHT22;4247;48.550;8.822;2023-02-23T08:49:16;10.20;99.90
8420;DHT22;4247;48.550;8.822;2023-02-23T08:51:42;10.30;99.90
8420;DHT22;4247;48.550;8.822;2023-02-23T08:54:13;10.30;99.90
8420;DHT22;4247;48.550;8.822;2023-02-23T08:56:43;10.30;99.90
8420;DHT22;4247;48.550;8.822;2023-02-23T08:59:12;10.40;99.90
8420;DHT22;4247;48.550;8.822;2023-02-23T09:01:40;10.40;99.90
8420;DHT22;4247;48.550;8.822;2023-02-23T09:04:07;10.50;99.90
8420;DHT22;4247;48.550;8.822;2023-02-23T09:06:36;10.50;99.90
8420;DHT22;4247;48.550;8.822;2023-02-23T09:09:03;10.60;99.90
8420;DHT22;4247;48.550;8.822;2023-02-23T09:11:32;10.60;99.90
8420;DHT22;4247;48.550;8.822;2023-02-23T09:14:00;10.70;99.90
8420;DHT22;4247;48.550;8.822;2023-02-23T09:16:27;10.80;99.90
8420;DHT22;4247;48.550;8.822;2023-02-23T09:18:54;10.90;99.90
8420;DHT22;4247;48.550;8.822;2023-02-23T09:21:26;11.00;99.90
8420;DHT22;4247;48.550;8.822;2023-02-23T09:23:55;11.00;99.90
8420;DHT22;4247;48.550;8.822;2023-02-23T09:26:23;11.20;99.90
8420;DHT22;4247;48.550;8.822;2023-02-23T09:28:55;11.20;99.90
8420;DHT22;4247;48.550;8.822;2023-02-23T09:31:26;11.30;99.90
8420;DHT22;4247;48.550;8.822;2023-02-23T09:33:54;11.30;99.90
8420;DHT22;4247;48.550;8.822;2023-02-23T09:36:22;11.30;99.90
8420;DHT22;4247;48.550;8.822;2023-02-23T09:38:51;11.30;99.90
8420;DHT22;4247;48.550;8.822;2023-02-23T09:41:45;11.40;99.90
8420;DHT22;4247;48.550;8.822;2023-02-23T09:44:24;11.50;99.90
8420;DHT22;4247;48.550;8.822;2023-02-23T09:47:01;11.50;99.90
8420;DHT22;4247;48.550;8.822;2023-02-23T09:49:32;11.50;99.90
8420;DHT22;4247;48.550;8.822;2023-02-23T09:52:01;11.50;99.90
8420;DHT22;4247;48.550;8.822;2023-02-23T09:54:33;11.60;99.90
8420;DHT22;4247;48.550;8.822;2023-02-23T09:57:02;11.60;99.90
8420;DHT22;4247;48.550;8.822;2023-02-23T09:59:33;11.70;99.90
8420;DHT22;4247;48.550;8.822;2023-02-23T10:02:09;11.70;99.90
8420;DHT22;4247;48.550;8.822;2023-02-23T10:04:43;11.70;99.90
8420;DHT22;4247;48.550;8.822;2023-02-23T10:07:15;11.90;99.90
8420;DHT22;4247;48.550;8.822;2023-02-23T10:09:57;12.00;99.90
8420;DHT22;4247;48.550;8.822;2023-02-23T10:12:31;12.00;99.90
8420;DHT22;4247;48.550;8.822;2023-02-23T10:15:17;12.10;99.90
8420;DHT22;4247;48.550;8.822;2023-02-23T10:17:57;12.20;99.90
8420;DHT22;4247;48.550;8.822;2023-02-23T10:20:34;12.10;99.90
8420;DHT22;4247;48.550;8.822;2023-02-23T10:23:07;12.20;99.90
8420;DHT22;4247;48.550;8.822;2023-02-23T10:25:40;12.30;99.90
8420;DHT22;4247;48.550;8.822;2023-02-23T10:28:12;12.40;99.90
8420;DHT22;4247;48.550;8.822;2023-02-23T10:30:42;12.40;99.90
8420;DHT22;4247;48.550;8.822;2023-02-23T10:33:13;12.50;99.90
8420;DHT22;4247;48.550;8.822;2023-02-23T10:35:42;12.60;99.90
8420;DHT22;4247;48.550;8.822;2023-02-23T10:38:13;12.70;99.90
8420;DHT22;4247;48.550;8.822;2023-02-23T10:40:43;12.60;99.90
8420;DHT22;4247;48.550;8.822;2023-02-23T10:43:12;12.80;99.90
8420;DHT22;4247;48.550;8.822;2023-02-23T10:45:44;12.80;99.90
8420;DHT22;4247;48.550;8.822;2023-02-23T10:48:17;12.80;99.90
8420;DHT22;4247;48.550;8.822;2023-02-23T10:50:48;12.90;99.90
8420;DHT22;4247;48.550;8.822;2023-02-23T10:53:18;12.80;99.90
8420;DHT22;4247;48.550;8.822;2023-02-23T10:56:00;12.80;99.90
8420;DHT22;4247;48.550;8.822;2023-02-23T10:58:27;12.90;99.90
8420;DHT22;4247;48.550;8.822;2023-02-23T11:00:58;12.90;99.90
8420;DHT22;4247;48.550;8.822;2023-02-23T11:03:29;12.90;99.90
8420;DHT22;4247;48.550;8.822;2023-02-23T11:05:58;12.90;99.90
8420;DHT22;4247;48.550;8.822;2023-02-23T11:08:27;12.90;99.90
8420;DHT22;4247;48.550;8.822;2023-02-23T11:11:03;12.80;99.90
8420;DHT22;4247;48.550;8.822;2023-02-23T11:13:36;12.80;99.90
8420;DHT22;4247;48.550;8.822;2023-02-23T11:16:09;12.80;99.90
8420;DHT22;4247;48.550;8.822;2023-02-23T11:18:38;12.90;99.90
8420;DHT22;4247;48.550;8.822;2023-02-23T11:21:11;12.90;99.90
8420;DHT22;4247;48.550;8.822;2023-02-23T11:23:39;12.90;99.90
8420;DHT22;4247;48.550;8.822;2023-02-23T11:26:23;12.90;99.90
8420;DHT22;4247;48.550;8.822;2023-02-23T11:28:54;12.90;99.90
8420;DHT22;4247;48.550;8.822;2023-02-23T11:31:28;12.90;99.90
8420;DHT22;4247;48.550;8.822;2023-02-23T11:33:57;12.90;99.90
8420;DHT22;4247;48.550;8.822;2023-02-23T11:36:27;12.80;99.90
8420;DHT22;4247;48.550;8.822;2023-02-23T11:39:05;12.80;99.90
8420;DHT22;4247;48.550;8.822;2023-02-23T11:41:33;12.80;99.90
8420;DHT22;4247;48.550;8.822;2023-02-23T11:44:02;12.80;99.90
8420;DHT22;4247;48.550;8.822;2023-02-23T11:46:35;12.80;99.90
8420;DHT22;4247;48.550;8.822;2023-02-23T11:49:07;12.80;99.90
8420;DHT22;4247;48.550;8.822;2023-02-23T11:51:36;12.80;99.90
8420;DHT22;4247;48.550;8.822;2023-02-23T11:54:07;12.80;99.90
8420;DHT22;4247;48.550;8.822;2023-02-23T11:56:47;12.80;99.90
8420;DHT22;4247;48.550;8.822;2023-02-23T11:59:21;12.70;99.90
8420;DHT22;4247;48.550;8.822;2023-02-23T12:01:53;12.70;99.90
8420;DHT22;4247;48.550;8.822;2023-02-23T12:04:28;12.70;99.90
8420;DHT22;4247;48.550;8.822;2023-02-23T12:10:10;12.70;99.90
8420;DHT22;4247;48.550;8.822;2023-02-23T12:12:46;12.70;99.90
8420;DHT22;4247;48.550;8.822;2023-02-23T12:15:22;12.60;99.90
8420;DHT22;4247;48.550;8.822;2023-02-23T12:17:55;12.60;99.90
8420;DHT22;4247;48.550;8.822;2023-02-23T12:20:29;12.60;99.90
8420;DHT22;4247;48.550;8.822;2023-02-23T12:23:04;12.50;99.90
8420;DHT22;4247;48.550;8.822;2023-02-23T12:28:58;12.40;99.90
8420;DHT22;4247;48.550;8.822;2023-02-23T12:31:30;12.40;99.90
8420;DHT22;4247;48.550;8.822;2023-02-23T12:34:14;12.40;99.90
8420;DHT22;4247;48.550;8.822;2023-02-23T12:36:46;12.40;99.90
8420;DHT22;4247;48.550;8.822;2023-02-23T12:39:20;12.40;99.90
8420;DHT22;4247;48.550;8.822;2023-02-23T12:41:56;12.40;99.90
8420;DHT22;4247;48.550;8.822;2023-02-23T12:44:32;12.40;99.90
8420;DHT22;4247;48.550;8.822;2023-02-23T12:47:06;12.40;99.90
8420;DHT22;4247;48.550;8.822;2023-02-23T12:49:39;12.40;99.90
8420;DHT22;4247;48.550;8.822;2023-02-23T12:52:11;12.40;99.90
8420;DHT22;4247;48.550;8.822;2023-02-23T12:54:39;12.40;99.90
8420;DHT22;4247;48.550;8.822;2023-02-23T12:57:13;12.40;99.90
8420;DHT22;4247;48.550;8.822;2023-02-23T12:59:59;12.40;99.90
8420;DHT22;4247;48.550;8.822;2023-02-23T13:02:52;12.30;99.90
8420;DHT22;4247;48.550;8.822;2023-02-23T13:05:27;12.30;99.90
8420;DHT22;4247;48.550;8.822;2023-02-23T13:08:06;12.20;99.90
8420;DHT22;4247;48.550;8.822;2023-02-23T13:10:44;12.10;99.90
8420;DHT22;4247;48.550;8.822;2023-02-23T13:13:23;12.10;99.90
8420;DHT22;4247;48.550;8.822;2023-02-23T13:15:57;12.10;99.90
8420;DHT22;4247;48.550;8.822;2023-02-23T13:18:28;12.10;99.90
8420;DHT22;4247;48.550;8.822;2023-02-23T13:21:04;12.10;99.90
8420;DHT22;4247;48.550;8.822;2023-02-23T13:23:35;12.10;99.90
8420;DHT22;4247;48.550;8.822;2023-02-23T13:26:13;12.10;99.90
8420;DHT22;4247;48.550;8.822;2023-02-23T13:28:50;12.10;99.90
8420;DHT22;4247;48.550;8.822;2023-02-23T13:31:23;12.10;99.90
8420;DHT22;4247;48.550;8.822;2023-02-23T13:33:51;12.00;99.90
8420;DHT22;4247;48.550;8.822;2023-02-23T13:36:20;12.00;99.90
8420;DHT22;4247;48.550;8.822;2023-02-23T13:39:04;12.10;99.90
8420;DHT22;4247;48.550;8.822;2023-02-23T13:41:48;12.10;99.90
8420;DHT22;4247;48.550;8.822;2023-02-23T13:44:22;12.10;99.90
8420;DHT22;4247;48.550;8.822;2023-02-23T13:46:56;12.10;99.90
8420;DHT22;4247;48.550;8.822;2023-02-23T13:49:35;12.10;99.90
8420;DHT22;4247;48.550;8.822;2023-02-23T13:52:26;12.20;99.90
8420;DHT22;4247;48.550;8.822;2023-02-23T13:54:57;12.30;99.90
8420;DHT22;4247;48.550;8.822;2023-02-23T13:57:29;12.30;99.90
8420;DHT22;4247;48.550;8.822;2023-02-23T13:59:56;12.30;99.90
8420;DHT22;4247;48.550;8.822;2023-02-23T14:02:34;12.30;99.90
8420;DHT22;4247;48.550;8.822;2023-02-23T14:05:13;12.30;99.90
8420;DHT22;4247;48.550;8.822;2023-02-23T14:07:44;12.30;99.90
8420;DHT22;4247;48.550;8.822;2023-02-23T14:10:17;12.30;99.90
8420;DHT22;4247;48.550;8.822;2023-02-23T14:13:07;12.30;99.90
8420;DHT22;4247;48.550;8.822;2023-02-23T14:15:49;12.30;99.90
8420;DHT22;4247;48.550;8.822;2023-02-23T14:18:29;12.30;99.90
8420;DHT22;4247;48.550;8.822;2023-02-23T14:21:00;12.40;99.90
8420;DHT22;4247;48.550;8.822;2023-02-23T14:23:37;12.40;99.90
8420;DHT22;4247;48.550;8.822;2023-02-23T14:26:35;12.40;99.90
8420;DHT22;4247;48.550;8.822;2023-02-23T14:29:24;12.40;99.90
8420;DHT22;4247;48.550;8.822;2023-02-23T14:32:03;12.50;99.90
8420;DHT22;4247;48.550;8.822;2023-02-23T14:34:55;12.50;99.90
8420;DHT22;4247;48.550;8.822;2023-02-23T14:37:28;12.40;99.90
8420;DHT22;4247;48.550;8.822;2023-02-23T14:40:02;12.40;99.90
8420;DHT22;4247;48.550;8.822;2023-02-23T14:42:30;12.40;99.90
8420;DHT22;4247;48.550;8.822;2023-02-23T14:45:03;12.40;99.90
8420;DHT22;4247;48.550;8.822;2023-02-23T14:47:41;12.40;99.90
8420;DHT22;4247;48.550;8.822;2023-02-23T14:50:15;12.40;99.90
8420;DHT22;4247;48.550;8.822;2023-02-23T14:52:44;12.30;99.90
8420;DHT22;4247;48.550;8.822;2023-02-23T14:55:19;12.30;99.90
8420;DHT22;4247;48.550;8.822;2023-02-23T14:57:49;12.20;99.90
8420;DHT22;4247;48.550;8.822;2023-02-23T15:00:24;12.20;99.90
8420;DHT22;4247;48.550;8.822;2023-02-23T15:02:59;12.20;99.90
8420;DHT22;4247;48.550;8.822;2023-02-23T15:05:30;12.10;99.90
8420;DHT22;4247;48.550;8.822;2023-02-23T15:08:02;12.20;99.90
8420;DHT22;4247;48.550;8.822;2023-02-23T15:10:35;12.20;99.90
8420;DHT22;4247;48.550;8.822;2023-02-23T15:13:08;12.20;99.90
8420;DHT22;4247;48.550;8.822;2023-02-23T15:15:39;12.20;99.90
8420;DHT22;4247;48.550;8.822;2023-02-23T15:21:36;12.10;99.90
8420;DHT22;4247;48.550;8.822;2023-02-23T15:24:10;12.10;99.90
8420;DHT22;4247;48.550;8.822;2023-02-23T15:26:38;12.00;99.90
8420;DHT22;4247;48.550;8.822;2023-02-23T15:29:14;12.00;99.90
8420;DHT22;4247;48.550;8.822;2023-02-23T15:31:49;12.00;99.90
8420;DHT22;4247;48.550;8.822;2023-02-23T15:34:17;12.00;99.90
8420;DHT22;4247;48.550;8.822;2023-02-23T15:36:56;12.00;99.90
8420;DHT22;4247;48.550;8.822;2023-02-23T15:39:34;12.00;99.90
8420;DHT22;4247;48.550;8.822;2023-02-23T15:42:03;11.90;99.90
8420;DHT22;4247;48.550;8.822;2023-02-23T15:44:34;12.00;99.90
8420;DHT22;4247;48.550;8.822;2023-02-23T15:47:05;11.90;99.90
8420;DHT22;4247;48.550;8.822;2023-02-23T15:49:37;11.90;99.90
8420;DHT22;4247;48.550;8.822;2023-02-23T15:52:13;11.90;99.90
8420;DHT22;4247;48.550;8.822;2023-02-23T15:54:46;11.90;99.90
8420;DHT22;4247;48.550;8.822;2023-02-23T15:57:21;11.90;99.90
8420;DHT22;4247;48.550;8.822;2023-02-23T15:59:56;11.90;99.90
8420;DHT22;4247;48.550;8.822;2023-02-23T16:02:24;11.90;99.90
8420;DHT22;4247;48.550;8.822;2023-02-23T16:04:51;11.80;99.90
8420;DHT22;4247;48.550;8.822;2023-02-23T16:07:22;11.90;99.90
8420;DHT22;4247;48.550;8.822;2023-02-23T16:09:51;11.80;99.90
8420;DHT22;4247;48.550;8.822;2023-02-23T16:12:21;11.80;99.90
8420;DHT22;4247;48.550;8.822;2023-02-23T16:14:51;11.80;99.90
8420;DHT22;4247;48.550;8.822;2023-02-23T16:17:27;11.70;99.90
8420;DHT22;4247;48.550;8.822;2023-02-23T16:19:56;11.70;99.90
8420;DHT22;4247;48.550;8.822;2023-02-23T16:22:37;11.70;99.90
8420;DHT22;4247;48.550;8.822;2023-02-23T16:25:10;11.70;99.90
8420;DHT22;4247;48.550;8.822;2023-02-23T16:27:37;11.70;99.90
8420;DHT22;4247;48.550;8.822;2023-02-23T16:30:16;11.60;99.90
8420;DHT22;4247;48.550;8.822;2023-02-23T16:32:48;11.60;99.90
8420;DHT22;4247;48.550;8.822;2023-02-23T16:35:18;11.50;99.90
8420;DHT22;4247;48.550;8.822;2023-02-23T16:37:56;11.50;99.90
8420;DHT22;4247;48.550;8.822;2023-02-23T16:40:24;11.40;99.90
8420;DHT22;4247;48.550;8.822;2023-02-23T16:42:51;11.40;99.90
8420;DHT22;4247;48.550;8.822;2023-02-23T16:45:23;11.30;99.90
8420;DHT22;4247;48.550;8.822;2023-02-23T16:47:51;11.30;99.90
8420;DHT22;4247;48.550;8.822;2023-02-23T16:50:19;11.20;99.90
8420;DHT22;4247;48.550;8.822;2023-02-23T16:52:48;11.20;99.90
8420;DHT22;4247;48.550;8.822;2023-02-23T16:55:19;11.10;99.90
8420;DHT22;4247;48.550;8.822;2023-02-23T16:57:52;11.10;99.90
8420;DHT22;4247;48.550;8.822;2023-02-23T17:00:22;11.00;99.90
8420;DHT22;4247;48.550;8.822;2023-02-23T17:02:50;10.90;99.90
8420;DHT22;4247;48.550;8.822;2023-02-23T17:05:18;10.90;99.90
8420;DHT22;4247;48.550;8.822;2023-02-23T17:07:49;10.80;99.90